sensor_id;sensor_type;location;lat;lon;timestamp;temperature;humidity
13049;DHT22;6591;51.446;5.404;2023-03-16T00:00:18;6.10;99.90
13049;DHT22;6591;51.446;5.404;2023-03-16T00:02:46;5.70;99.90
13049;DHT22;6591;51.446;5.404;2023-03-16T00:05:13;6.20;99.90
13049;DHT22;6591;51.446;5.404;2023-03-16T00:07:41;6.20;99.90
13049;DHT22;6591;51.446;5.404;2023-03-16T00:10:11;6.90;99.90
13049;DHT22;6591;51.446;5.404;2023-03-16T00:12:39;6.30;99.90
13049;DHT22;6591;51.446;5.404;2023-03-16T00:15:11;6.30;99.90
13049;DHT22;6591;51.446;5.404;2023-03-16T00:17:38;6.30;99.90
13049;DHT22;6591;51.446;5.404;2023-03-16T00:20:06;6.40;99.90
13049;DHT22;6591;51.446;5.404;2023-03-16T00:22:33;6.40;99.90
13049;DHT22;6591;51.446;5.404;2023-03-16T00:25:00;6.40;99.90
13049;DHT22;6591;51.446;5.404;2023-03-16T00:27:27;6.40;99.90
13049;DHT22;6591;51.446;5.404;2023-03-16T00:29:55;6.40;99.90
13049;DHT22;6591;51.446;5.404;2023-03-16T00:32:28;6.50;99.90
13049;DHT22;6591;51.446;5.404;2023-03-16T00:34:57;6.40;99.90
13049;DHT22;6591;51.446;5.404;2023-03-16T00:37:29;6.50;99.90
13049;DHT22;6591;51.446;5.404;2023-03-16T00:39:59;6.50;99.90
13049;DHT22;6591;51.446;5.404;2023-03-16T00:42:29;6.50;99.90
13049;DHT22;6591;51.446;5.404;2023-03-16T00:44:58;6.60;99.90
13049;DHT22;6591;51.446;5.404;2023-03-16T00:47:29;6.50;99.90
13049;DHT22;6591;51.446;5.404;2023-03-16T00:49:58;6.60;99.90
13049;DHT22;6591;51.446;5.404;2023-03-16T00:52:27;6.60;99.90
13049;DHT22;6591;51.446;5.404;2023-03-16T00:54:56;6.60;99.90
13049;DHT22;6591;51.446;5.404;2023-03-16T00:57:24;6.60;99.90
13049;DHT22;6591;51.446;5.404;2023-03-16T00:59:54;6.60;99.90
13049;DHT22;6591;51.446;5.404;2023-03-16T01:02:21;6.70;99.90
13049;DHT22;6591;51.446;5.404;2023-03-16T01:04:52;6.80;99.90
13049;DHT22;6591;51.446;5.404;2023-03-16T01:07:22;6.70;99.90
13049;DHT22;6591;51.446;5.404;2023-03-16T01:09:49;6.70;99.90
13049;DHT22;6591;51.446;5.404;2023-03-16T01:12:17;6.70;99.90
13049;DHT22;6591;51.446;5.404;2023-03-16T01:14:45;6.70;99.90
13049;DHT22;6591;51.446;5.404;2023-03-16T01:17:14;6.70;99.90
13049;DHT22;6591;51.446;5.404;2023-03-16T01:19:43;6.70;99.90
13049;DHT22;6591;51.446;5.404;2023-03-16T01:22:11;6.70;99.90
13049;DHT22;6591;51.446;5.404;2023-03-16T01:24:40;6.70;99.90
13049;DHT22;6591;51.446;5.404;2023-03-16T01:27:08;6.70;99.90
13049;DHT22;6591;51.446;5.404;2023-03-16T01:29:36;6.80;99.90
13049;DHT22;6591;51.446;5.404;2023-03-16T01:32:04;6.80;99.90
13049;DHT22;6591;51.446;5.404;2023-03-16T01:34:33;6.80;99.90
13049;DHT22;6591;51.446;5.404;2023-03-16T01:37:01;6.80;99.90
13049;DHT22;6591;51.446;5.404;2023-03-16T01:39:48;6.90;99.90
13049;DHT22;6591;51.446;5.404;2023-03-16T01:42:16;6.90;99.90
13049;DHT22;6591;51.446;5.404;2023-03-16T01:48:21;6.90;99.90
13049;DHT22;6591;51.446;5.404;2023-03-16T01:50:52;6.90;99.90
13049;DHT22;6591;51.446;5.404;2023-03-16T01:53:23;7.00;99.90
13049;DHT22;6591;51.446;5.404;2023-03-16T01:55:52;7.60;99.90
13049;DHT22;6591;51.446;5.404;2023-03-16T01:58:21;7.40;99.90
13049;DHT22;6591;51.446;5.404;2023-03-16T02:00:48;7.70;99.90
13049;DHT22;6591;51.446;5.404;2023-03-16T02:03:20;7.00;99.90
13049;DHT22;6591;51.446;5.404;2023-03-16T02:05:58;7.10;99.90
13049;DHT22;6591;51.446;5.404;2023-03-16T02:08:33;7.10;99.90
13049;DHT22;6591;51.446;5.404;2023-03-16T02:11:05;7.50;99.90
13049;DHT22;6591;51.446;5.404;2023-03-16T02:13:44;8.50;99.90
13049;DHT22;6591;51.446;5.404;2023-03-16T02:16:12;7.20;99.90
13049;DHT22;6591;51.446;5.404;2023-03-16T02:18:49;7.20;99.90
13049;DHT22;6591;51.446;5.404;2023-03-16T02:21:27;8.30;99.90
13049;DHT22;6591;51.446;5.404;2023-03-16T02:24:06;7.20;99.90
13049;DHT22;6591;51.446;5.404;2023-03-16T02:26:50;8.50;99.90
13049;DHT22;6591;51.446;5.404;2023-03-16T02:32:43;7.30;99.90
13049;DHT22;6591;51.446;5.404;2023-03-16T02:35:13;7.30;99.90
13049;DHT22;6591;51.446;5.404;2023-03-16T02:37:41;7.20;99.90
13049;DHT22;6591;51.446;5.404;2023-03-16T02:40:29;7.20;99.90
13049;DHT22;6591;51.446;5.404;2023-03-16T02:43:06;7.30;99.90
13049;DHT22;6591;51.446;5.404;2023-03-16T02:45:55;7.20;99.90
13049;DHT22;6591;51.446;5.404;2023-03-16T02:48:30;8.10;99.90
13049;DHT22;6591;51.446;5.404;2023-03-16T02:51:04;7.30;99.90
13049;DHT22;6591;51.446;5.404;2023-03-16T02:53:31;7.20;99.90
13049;DHT22;6591;51.446;5.404;2023-03-16T02:56:00;7.20;99.90
13049;DHT22;6591;51.446;5.404;2023-03-16T02:58:33;7.20;99.90
13049;DHT22;6591;51.446;5.404;2023-03-16T03:01:04;7.20;99.90
13049;DHT22;6591;51.446;5.404;2023-03-16T03:03:33;7.20;99.90
13049;DHT22;6591;51.446;5.404;2023-03-16T03:06:00;7.20;99.90
13049;DHT22;6591;51.446;5.404;2023-03-16T03:08:33;7.20;99.90
13049;DHT22;6591;51.446;5.404;2023-03-16T03:11:01;7.20;99.90
13049;DHT22;6591;51.446;5.404;2023-03-16T03:13:28;7.20;99.90
13049;DHT22;6591;51.446;5.404;2023-03-16T03:15:55;7.20;99.90
13049;DHT22;6591;51.446;5.404;2023-03-16T03:18:24;7.20;99.90
13049;DHT22;6591;51.446;5.404;2023-03-16T03:20:52;7.20;99.90
13049;DHT22;6591;51.446;5.404;2023-03-16T03:23:19;7.20;99.90
13049;DHT22;6591;51.446;5.404;2023-03-16T03:25:46;7.20;99.90
13049;DHT22;6591;51.446;5.404;2023-03-16T03:28:15;7.20;99.90
13049;DHT22;6591;51.446;5.404;2023-03-16T03:30:42;7.10;99.90
13049;DHT22;6591;51.446;5.404;2023-03-16T03:33:09;8.60;99.90
13049;DHT22;6591;51.446;5.404;2023-03-16T03:35:36;7.10;99.90
13049;DHT22;6591;51.446;5.404;2023-03-16T03:38:04;7.10;99.90
13049;DHT22;6591;51.446;5.404;2023-03-16T03:40:31;8.10;99.90
13049;DHT22;6591;51.446;5.404;2023-03-16T03:43:01;7.10;99.90
13049;DHT22;6591;51.446;5.404;2023-03-16T03:45:30;7.10;99.90
13049;DHT22;6591;51.446;5.404;2023-03-16T03:47:57;5.90;99.90
13049;DHT22;6591;51.446;5.404;2023-03-16T03:50:25;7.00;99.90
13049;DHT22;6591;51.446;5.404;2023-03-16T03:53:16;7.00;99.90
13049;DHT22;6591;51.446;5.404;2023-03-16T03:56:14;7.00;99.90
13049;DHT22;6591;51.446;5.404;2023-03-16T03:58:42;8.40;99.90
13049;DHT22;6591;51.446;5.404;2023-03-16T04:01:12;7.00;99.90
13049;DHT22;6591;51.446;5.404;2023-03-16T04:03:40;7.10;99.90
13049;DHT22;6591;51.446;5.404;2023-03-16T04:06:10;7.10;99.90
13049;DHT22;6591;51.446;5.404;2023-03-16T04:08:37;7.10;99.90
13049;DHT22;6591;51.446;5.404;2023-03-16T04:11:08;7.10;99.90
13049;DHT22;6591;51.446;5.404;2023-03-16T04:13:35;9.10;99.90
13049;DHT22;6591;51.446;5.404;2023-03-16T04:16:02;7.10;99.90
13049;DHT22;6591;51.446;5.404;2023-03-16T04:18:39;7.10;99.90
13049;DHT22;6591;51.446;5.404;2023-03-16T04:21:14;8.20;99.90
13049;DHT22;6591;51.446;5.404;2023-03-16T04:23:45;7.10;99.90
13049;DHT22;6591;51.446;5.404;2023-03-16T04:26:13;7.10;99.90
13049;DHT22;6591;51.446;5.404;2023-03-16T04:28:43;5.90;99.90
13049;DHT22;6591;51.446;5.404;2023-03-16T04:31:13;7.20;99.90
13049;DHT22;6591;51.446;5.404;2023-03-16T04:33:43;7.10;99.90
13049;DHT22;6591;51.446;5.404;2023-03-16T04:36:11;7.10;99.90
13049;DHT22;6591;51.446;5.404;2023-03-16T04:38:39;7.20;99.90
13049;DHT22;6591;51.446;5.404;2023-03-16T04:41:06;7.20;99.90
13049;DHT22;6591;51.446;5.404;2023-03-16T04:43:38;7.40;99.90
13049;DHT22;6591;51.446;5.404;2023-03-16T04:46:14;7.20;99.90
13049;DHT22;6591;51.446;5.404;2023-03-16T04:48:41;7.30;99.90
13049;DHT22;6591;51.446;5.404;2023-03-16T04:51:09;7.30;99.90
13049;DHT22;6591;51.446;5.404;2023-03-16T04:53:40;7.30;99.90
13049;DHT22;6591;51.446;5.404;2023-03-16T04:56:33;7.30;99.90
13049;DHT22;6591;51.446;5.404;2023-03-16T04:59:05;8.80;99.90
13049;DHT22;6591;51.446;5.404;2023-03-16T05:01:43;7.40;99.90
13049;DHT22;6591;51.446;5.404;2023-03-16T05:04:11;7.40;99.90
13049;DHT22;6591;51.446;5.404;2023-03-16T05:06:47;7.40;99.90
13049;DHT22;6591;51.446;5.404;2023-03-16T05:09:16;7.40;99.90
13049;DHT22;6591;51.446;5.404;2023-03-16T05:11:43;7.40;99.90
13049;DHT22;6591;51.446;5.404;2023-03-16T05:14:11;7.40;99.90
13049;DHT22;6591;51.446;5.404;2023-03-16T05:16:58;7.40;99.90
13049;DHT22;6591;51.446;5.404;2023-03-16T05:19:25;9.50;99.90
13049;DHT22;6591;51.446;5.404;2023-03-16T05:21:52;7.40;99.90
13049;DHT22;6591;51.446;5.404;2023-03-16T05:24:19;7.40;99.90
13049;DHT22;6591;51.446;5.404;2023-03-16T05:26:46;7.40;99.90
13049;DHT22;6591;51.446;5.404;2023-03-16T05:29:15;7.40;99.90
13049;DHT22;6591;51.446;5.404;2023-03-16T05:31:44;7.40;99.90
13049;DHT22;6591;51.446;5.404;2023-03-16T05:34:16;7.40;99.90
13049;DHT22;6591;51.446;5.404;2023-03-16T05:36:43;7.40;99.90
13049;DHT22;6591;51.446;5.404;2023-03-16T05:39:14;7.50;99.90
13049;DHT22;6591;51.446;5.404;2023-03-16T05:41:45;7.50;99.90
13049;DHT22;6591;51.446;5.404;2023-03-16T05:44:20;7.50;99.90
13049;DHT22;6591;51.446;5.404;2023-03-16T05:47:03;7.50;99.90
13049;DHT22;6591;51.446;5.404;2023-03-16T05:49:34;7.50;99.90
13049;DHT22;6591;51.446;5.404;2023-03-16T05:52:06;7.50;99.90
13049;DHT22;6591;51.446;5.404;2023-03-16T05:54:34;7.50;99.90
13049;DHT22;6591;51.446;5.404;2023-03-16T05:57:02;7.50;99.90
13049;DHT22;6591;51.446;5.404;2023-03-16T05:59:31;7.60;99.90
13049;DHT22;6591;51.446;5.404;2023-03-16T06:01:58;7.60;99.90
13049;DHT22;6591;51.446;5.404;2023-03-16T06:04:25;7.60;99.90
13049;DHT22;6591;51.446;5.404;2023-03-16T06:06:53;7.60;99.90
13049;DHT22;6591;51.446;5.404;2023-03-16T06:09:24;7.90;99.90
13049;DHT22;6591;51.446;5.404;2023-03-16T06:11:51;7.60;99.90
13049;DHT22;6591;51.446;5.404;2023-03-16T06:14:19;7.60;99.90
13049;DHT22;6591;51.446;5.404;2023-03-16T06:16:50;7.70;99.90
13049;DHT22;6591;51.446;5.404;2023-03-16T06:19:17;7.70;99.90
13049;DHT22;6591;51.446;5.404;2023-03-16T06:21:49;7.40;99.90
13049;DHT22;6591;51.446;5.404;2023-03-16T06:24:17;7.80;99.90
13049;DHT22;6591;51.446;5.404;2023-03-16T06:26:44;8.30;99.90
13049;DHT22;6591;51.446;5.404;2023-03-16T06:29:12;9.10;99.90
13049;DHT22;6591;51.446;5.404;2023-03-16T06:31:40;7.80;99.90
13049;DHT22;6591;51.446;5.404;2023-03-16T06:34:07;7.90;99.90
13049;DHT22;6591;51.446;5.404;2023-03-16T06:36:34;9.00;99.90
13049;DHT22;6591;51.446;5.404;2023-03-16T06:39:08;8.60;99.90
13049;DHT22;6591;51.446;5.404;2023-03-16T06:41:39;8.20;99.90
13049;DHT22;6591;51.446;5.404;2023-03-16T06:44:09;7.90;99.90
13049;DHT22;6591;51.446;5.404;2023-03-16T06:46:44;8.00;99.90
13049;DHT22;6591;51.446;5.404;2023-03-16T06:49:11;8.00;99.90
13049;DHT22;6591;51.446;5.404;2023-03-16T06:51:39;8.00;99.90
13049;DHT22;6591;51.446;5.404;2023-03-16T06:54:06;8.10;99.90
13049;DHT22;6591;51.446;5.404;2023-03-16T06:56:37;8.20;99.90
13049;DHT22;6591;51.446;5.404;2023-03-16T06:59:05;8.20;99.90
13049;DHT22;6591;51.446;5.404;2023-03-16T07:01:32;9.90;99.90
13049;DHT22;6591;51.446;5.404;2023-03-16T07:04:01;8.30;99.90
13049;DHT22;6591;51.446;5.404;2023-03-16T07:06:30;8.40;99.90
13049;DHT22;6591;51.446;5.404;2023-03-16T07:08:58;8.40;99.90
13049;DHT22;6591;51.446;5.404;2023-03-16T07:11:28;8.40;99.90
13049;DHT22;6591;51.446;5.404;2023-03-16T07:13:56;8.50;99.90
13049;DHT22;6591;51.446;5.404;2023-03-16T07:16:26;10.70;99.90
13049;DHT22;6591;51.446;5.404;2023-03-16T07:18:56;9.90;99.90
13049;DHT22;6591;51.446;5.404;2023-03-16T07:21:24;8.60;99.90
13049;DHT22;6591;51.446;5.404;2023-03-16T07:23:51;8.70;99.90
13049;DHT22;6591;51.446;5.404;2023-03-16T07:26:23;8.70;99.90
13049;DHT22;6591;51.446;5.404;2023-03-16T07:28:57;8.80;99.90
13049;DHT22;6591;51.446;5.404;2023-03-16T07:31:24;9.20;99.90
13049;DHT22;6591;51.446;5.404;2023-03-16T07:33:54;8.90;99.90
13049;DHT22;6591;51.446;5.404;2023-03-16T07:36:30;8.90;99.90
13049;DHT22;6591;51.446;5.404;2023-03-16T07:39:00;9.00;99.90
13049;DHT22;6591;51.446;5.404;2023-03-16T07:41:27;10.60;99.90
13049;DHT22;6591;51.446;5.404;2023-03-16T07:44:12;11.10;99.90
13049;DHT22;6591;51.446;5.404;2023-03-16T07:46:40;9.90;99.90
13049;DHT22;6591;51.446;5.404;2023-03-16T07:49:08;8.60;99.90
13049;DHT22;6591;51.446;5.404;2023-03-16T07:51:38;9.30;99.90
13049;DHT22;6591;51.446;5.404;2023-03-16T07:54:07;9.30;99.90
13049;DHT22;6591;51.446;5.404;2023-03-16T07:56:35;10.50;99.90
13049;DHT22;6591;51.446;5.404;2023-03-16T07:59:24;9.50;99.90
13049;DHT22;6591;51.446;5.404;2023-03-16T08:01:51;9.60;99.90
13049;DHT22;6591;51.446;5.404;2023-03-16T08:04:19;10.20;99.90
13049;DHT22;6591;51.446;5.404;2023-03-16T08:06:46;9.70;99.90
13049;DHT22;6591;51.446;5.404;2023-03-16T08:09:13;9.70;99.90
13049;DHT22;6591;51.446;5.404;2023-03-16T08:11:41;10.60;99.90
13049;DHT22;6591;51.446;5.404;2023-03-16T08:14:09;9.90;99.90
13049;DHT22;6591;51.446;5.404;2023-03-16T08:16:55;10.00;99.90
13049;DHT22;6591;51.446;5.404;2023-03-16T08:19:24;10.10;99.90
13049;DHT22;6591;51.446;5.404;2023-03-16T08:21:54;11.10;99.90
13049;DHT22;6591;51.446;5.404;2023-03-16T08:24:32;10.40;99.90
13049;DHT22;6591;51.446;5.404;2023-03-16T08:27:05;10.70;99.90
13049;DHT22;6591;51.446;5.404;2023-03-16T08:29:33;10.60;99.90
13049;DHT22;6591;51.446;5.404;2023-03-16T08:32:02;10.70;99.90
13049;DHT22;6591;51.446;5.404;2023-03-16T08:34:37;10.90;99.90
13049;DHT22;6591;51.446;5.404;2023-03-16T08:37:06;12.60;99.90
13049;DHT22;6591;51.446;5.404;2023-03-16T08:39:33;11.10;99.90
13049;DHT22;6591;51.446;5.404;2023-03-16T08:42:05;11.20;99.90
13049;DHT22;6591;51.446;5.404;2023-03-16T08:44:40;11.30;99.90
13049;DHT22;6591;51.446;5.404;2023-03-16T08:47:07;12.30;99.90
13049;DHT22;6591;51.446;5.404;2023-03-16T08:49:35;11.50;99.90
13049;DHT22;6591;51.446;5.404;2023-03-16T08:52:10;11.60;99.90
13049;DHT22;6591;51.446;5.404;2023-03-16T08:54:39;11.60;99.90
13049;DHT22;6591;51.446;5.404;2023-03-16T08:57:18;11.60;99.90
13049;DHT22;6591;51.446;5.404;2023-03-16T08:59:45;12.90;99.90
13049;DHT22;6591;51.446;5.404;2023-03-16T09:02:13;11.70;99.90
13049;DHT22;6591;51.446;5.404;2023-03-16T09:04:40;11.80;99.90
13049;DHT22;6591;51.446;5.404;2023-03-16T09:07:07;12.30;99.90
13049;DHT22;6591;51.446;5.404;2023-03-16T09:09:36;11.90;99.90
13049;DHT22;6591;51.446;5.404;2023-03-16T09:12:03;13.00;99.90
13049;DHT22;6591;51.446;5.404;2023-03-16T09:14:32;12.00;99.90
13049;DHT22;6591;51.446;5.404;2023-03-16T09:16:59;12.10;99.90
13049;DHT22;6591;51.446;5.404;2023-03-16T09:19:25;13.00;99.90
13049;DHT22;6591;51.446;5.404;2023-03-16T09:22:00;12.60;99.90
13049;DHT22;6591;51.446;5.404;2023-03-16T09:24:27;13.00;99.90
13049;DHT22;6591;51.446;5.404;2023-03-16T09:26:58;12.60;99.90
13049;DHT22;6591;51.446;5.404;2023-03-16T09:29:25;14.50;99.90
13049;DHT22;6591;51.446;5.404;2023-03-16T09:31:53;12.80;99.90
13049;DHT22;6591;51.446;5.404;2023-03-16T09:34:21;13.40;99.90
13049;DHT22;6591;51.446;5.404;2023-03-16T09:36:53;14.80;99.90
13049;DHT22;6591;51.446;5.404;2023-03-16T09:39:20;13.50;99.90
13049;DHT22;6591;51.446;5.404;2023-03-16T09:41:59;13.70;99.90
13049;DHT22;6591;51.446;5.404;2023-03-16T09:47:41;13.80;99.20
13049;DHT22;6591;51.446;5.404;2023-03-16T09:50:28;13.90;99.60
13049;DHT22;6591;51.446;5.404;2023-03-16T09:53:28;14.00;99.20
13049;DHT22;6591;51.446;5.404;2023-03-16T09:56:02;14.20;99.20
13049;DHT22;6591;51.446;5.404;2023-03-16T09:58:33;15.40;99.80
13049;DHT22;6591;51.446;5.404;2023-03-16T10:04:14;14.90;98.40
13049;DHT22;6591;51.446;5.404;2023-03-16T10:16:42;15.90;97.50
13049;DHT22;6591;51.446;5.404;2023-03-16T10:22:16;16.20;97.50
13049;DHT22;6591;51.446;5.404;2023-03-16T10:27:59;16.50;96.20
13049;DHT22;6591;51.446;5.404;2023-03-16T10:30:34;16.50;96.40
13049;DHT22;6591;51.446;5.404;2023-03-16T10:33:25;15.80;95.30
13049;DHT22;6591;51.446;5.404;2023-03-16T10:39:14;16.60;96.10
13049;DHT22;6591;51.446;5.404;2023-03-16T10:41:44;16.90;96.10
13049;DHT22;6591;51.446;5.404;2023-03-16T10:44:21;16.60;95.20
13049;DHT22;6591;51.446;5.404;2023-03-16T10:46:59;16.70;95.20
13049;DHT22;6591;51.446;5.404;2023-03-16T10:49:43;16.70;94.40
13049;DHT22;6591;51.446;5.404;2023-03-16T10:55:06;16.90;94.50
13049;DHT22;6591;51.446;5.404;2023-03-16T10:57:41;17.10;94.20
13049;DHT22;6591;51.446;5.404;2023-03-16T11:00:19;17.50;94.50
13049;DHT22;6591;51.446;5.404;2023-03-16T11:02:50;17.40;94.70
13049;DHT22;6591;51.446;5.404;2023-03-16T11:05:33;17.50;94.70
13049;DHT22;6591;51.446;5.404;2023-03-16T11:08:19;18.40;93.90
13049;DHT22;6591;51.446;5.404;2023-03-16T11:10:57;17.90;93.40
13049;DHT22;6591;51.446;5.404;2023-03-16T11:13:32;18.10;93.40
13049;DHT22;6591;51.446;5.404;2023-03-16T11:16:22;18.20;93.00
13049;DHT22;6591;51.446;5.404;2023-03-16T11:19:04;18.50;92.60
13049;DHT22;6591;51.446;5.404;2023-03-16T11:24:48;18.80;93.50
13049;DHT22;6591;51.446;5.404;2023-03-16T11:27:34;19.00;91.80
13049;DHT22;6591;51.446;5.404;2023-03-16T11:30:37;19.10;91.40
13049;DHT22;6591;51.446;5.404;2023-03-16T11:33:12;19.20;90.80
13049;DHT22;6591;51.446;5.404;2023-03-16T11:38:37;19.20;91.30
13049;DHT22;6591;51.446;5.404;2023-03-16T11:41:34;19.20;90.80
13049;DHT22;6591;51.446;5.404;2023-03-16T11:44:32;19.20;90.70
13049;DHT22;6591;51.446;5.404;2023-03-16T11:47:51;19.20;90.80
13049;DHT22;6591;51.446;5.404;2023-03-16T11:53:31;19.10;88.40
13049;DHT22;6591;51.446;5.404;2023-03-16T11:59:30;19.10;88.30
13049;DHT22;6591;51.446;5.404;2023-03-16T12:14:44;19.10;87.90
13049;DHT22;6591;51.446;5.404;2023-03-16T12:17:22;19.20;87.40
13049;DHT22;6591;51.446;5.404;2023-03-16T12:19:58;19.20;89.20
13049;DHT22;6591;51.446;5.404;2023-03-16T12:22:37;19.20;88.50
13049;DHT22;6591;51.446;5.404;2023-03-16T12:25:24;19.30;87.40
13049;DHT22;6591;51.446;5.404;2023-03-16T12:27:57;19.30;86.30
13049;DHT22;6591;51.446;5.404;2023-03-16T12:31:06;19.30;87.20
13049;DHT22;6591;51.446;5.404;2023-03-16T12:36:49;19.40;84.20
13049;DHT22;6591;51.446;5.404;2023-03-16T12:51:00;19.60;83.50
13049;DHT22;6591;51.446;5.404;2023-03-16T12:56:35;19.70;82.10
13049;DHT22;6591;51.446;5.404;2023-03-16T12:59:15;19.70;83.10
13049;DHT22;6591;51.446;5.404;2023-03-16T13:01:55;19.70;83.30
13049;DHT22;6591;51.446;5.404;2023-03-16T13:04:37;19.80;82.90
13049;DHT22;6591;51.446;5.404;2023-03-16T13:07:23;19.90;82.30
13049;DHT22;6591;51.446;5.404;2023-03-16T13:10:04;19.90;80.70
13049;DHT22;6591;51.446;5.404;2023-03-16T13:12:38;20.00;81.10
13049;DHT22;6591;51.446;5.404;2023-03-16T13:17:43;20.10;81.00
13049;DHT22;6591;51.446;5.404;2023-03-16T13:28:39;20.20;79.00
13049;DHT22;6591;51.446;5.404;2023-03-16T13:31:39;20.30;79.40
13049;DHT22;6591;51.446;5.404;2023-03-16T13:34:19;20.20;77.60
13049;DHT22;6591;51.446;5.404;2023-03-16T13:36:53;20.10;78.80
13049;DHT22;6591;51.446;5.404;2023-03-16T13:39:24;20.10;78.90
13049;DHT22;6591;51.446;5.404;2023-03-16T13:41:58;20.10;78.60
13049;DHT22;6591;51.446;5.404;2023-03-16T13:44:42;20.20;79.10
13049;DHT22;6591;51.446;5.404;2023-03-16T13:47:17;21.30;80.50
13049;DHT22;6591;51.446;5.404;2023-03-16T13:52:27;20.20;79.10
13049;DHT22;6591;51.446;5.404;2023-03-16T13:54:57;20.40;78.10
13049;DHT22;6591;51.446;5.404;2023-03-16T13:57:34;20.50;79.00
13049;DHT22;6591;51.446;5.404;2023-03-16T14:02:42;20.60;77.20
13049;DHT22;6591;51.446;5.404;2023-03-16T14:05:20;20.70;78.90
13049;DHT22;6591;51.446;5.404;2023-03-16T14:07:54;20.70;78.80
13049;DHT22;6591;51.446;5.404;2023-03-16T14:10:26;20.80;78.70
13049;DHT22;6591;51.446;5.404;2023-03-16T14:13:29;20.90;78.00
13049;DHT22;6591;51.446;5.404;2023-03-16T14:16:10;21.00;77.40
13049;DHT22;6591;51.446;5.404;2023-03-16T14:19:07;21.10;76.90
13049;DHT22;6591;51.446;5.404;2023-03-16T14:21:43;21.30;78.00
13049;DHT22;6591;51.446;5.404;2023-03-16T14:24:29;21.30;77.20
13049;DHT22;6591;51.446;5.404;2023-03-16T14:27:31;21.40;75.90
13049;DHT22;6591;51.446;5.404;2023-03-16T14:30:22;22.00;75.90
13049;DHT22;6591;51.446;5.404;2023-03-16T14:33:04;21.40;75.10
13049;DHT22;6591;51.446;5.404;2023-03-16T14:35:43;21.50;75.80
13049;DHT22;6591;51.446;5.404;2023-03-16T14:38:29;21.50;73.60
13049;DHT22;6591;51.446;5.404;2023-03-16T14:41:24;21.50;73.70
13049;DHT22;6591;51.446;5.404;2023-03-16T14:44:02;21.50;71.90
13049;DHT22;6591;51.446;5.404;2023-03-16T14:46:38;21.40;72.90
13049;DHT22;6591;51.446;5.404;2023-03-16T14:52:00;21.40;70.50
13049;DHT22;6591;51.446;5.404;2023-03-16T14:54:33;21.40;73.00
13049;DHT22;6591;51.446;5.404;2023-03-16T14:57:02;21.40;73.60
13049;DHT22;6591;51.446;5.404;2023-03-16T14:59:32;21.30;73.10
13049;DHT22;6591;51.446;5.404;2023-03-16T15:02:00;21.40;73.00
13049;DHT22;6591;51.446;5.404;2023-03-16T15:04:33;21.30;73.00
13049;DHT22;6591;51.446;5.404;2023-03-16T15:07:33;21.30;72.60
13049;DHT22;6591;51.446;5.404;2023-03-16T15:12:42;21.10;71.40
13049;DHT22;6591;51.446;5.404;2023-03-16T15:15:21;21.10;71.40
13049;DHT22;6591;51.446;5.404;2023-03-16T15:17:52;21.00;69.50
13049;DHT22;6591;51.446;5.404;2023-03-16T15:20:24;20.90;70.10
13049;DHT22;6591;51.446;5.404;2023-03-16T15:22:57;20.70;69.90
13049;DHT22;6591;51.446;5.404;2023-03-16T15:25:39;20.60;69.60
13049;DHT22;6591;51.446;5.404;2023-03-16T15:28:17;20.50;68.40
13049;DHT22;6591;51.446;5.404;2023-03-16T15:30:49;20.30;68.80
13049;DHT22;6591;51.446;5.404;2023-03-16T15:33:20;20.30;69.90
13049;DHT22;6591;51.446;5.404;2023-03-16T15:35:48;20.10;69.60
13049;DHT22;6591;51.446;5.404;2023-03-16T15:38:28;20.00;69.70
13049;DHT22;6591;51.446;5.404;2023-03-16T15:41:01;19.90;69.50
13049;DHT22;6591;51.446;5.404;2023-03-16T15:43:30;19.80;69.90
13049;DHT22;6591;51.446;5.404;2023-03-16T15:45:57;19.60;69.60
13049;DHT22;6591;51.446;5.404;2023-03-16T15:48:27;19.50;69.60
13049;DHT22;6591;51.446;5.404;2023-03-16T15:50:59;19.40;69.40
13049;DHT22;6591;51.446;5.404;2023-03-16T15:53:42;19.30;70.00
13049;DHT22;6591;51.446;5.404;2023-03-16T15:56:19;19.20;69.70
13049;DHT22;6591;51.446;5.404;2023-03-16T15:58:52;19.20;70.20
13049;DHT22;6591;51.446;5.404;2023-03-16T16:01:30;19.20;70.50
13049;DHT22;6591;51.446;5.404;2023-03-16T16:04:08;19.20;69.70
13049;DHT22;6591;51.446;5.404;2023-03-16T16:06:39;19.20;70.30
13049;DHT22;6591;51.446;5.404;2023-03-16T16:09:06;19.20;70.50
13049;DHT22;6591;51.446;5.404;2023-03-16T16:11:34;19.10;70.40
13049;DHT22;6591;51.446;5.404;2023-03-16T16:14:01;19.00;70.30
13049;DHT22;6591;51.446;5.404;2023-03-16T16:16:31;19.00;70.30
13049;DHT22;6591;51.446;5.404;2023-03-16T16:19:00;18.80;70.30
13049;DHT22;6591;51.446;5.404;2023-03-16T16:21:27;18.80;70.10
13049;DHT22;6591;51.446;5.404;2023-03-16T16:23:57;18.70;70.20
13049;DHT22;6591;51.446;5.404;2023-03-16T16:26:31;18.60;70.30
13049;DHT22;6591;51.446;5.404;2023-03-16T16:29:22;18.60;70.80
13049;DHT22;6591;51.446;5.404;2023-03-16T16:31:52;18.30;71.00
13049;DHT22;6591;51.446;5.404;2023-03-16T16:34:22;18.60;72.30
13049;DHT22;6591;51.446;5.404;2023-03-16T16:36:55;18.70;73.30
13049;DHT22;6591;51.446;5.404;2023-03-16T16:39:23;18.90;73.90
13049;DHT22;6591;51.446;5.404;2023-03-16T16:41:52;19.10;73.60
13049;DHT22;6591;51.446;5.404;2023-03-16T16:44:29;19.40;73.40
13049;DHT22;6591;51.446;5.404;2023-03-16T16:47:00;19.60;71.60
13049;DHT22;6591;51.446;5.404;2023-03-16T16:49:29;19.70;72.40
13049;DHT22;6591;51.446;5.404;2023-03-16T16:51:58;19.90;71.20
13049;DHT22;6591;51.446;5.404;2023-03-16T16:54:29;19.90;70.50
13049;DHT22;6591;51.446;5.404;2023-03-16T16:56:58;19.90;69.90
13049;DHT22;6591;51.446;5.404;2023-03-16T16:59:36;19.80;69.40
13049;DHT22;6591;51.446;5.404;2023-03-16T17:02:31;19.80;67.80
13049;DHT22;6591;51.446;5.404;2023-03-16T17:05:17;19.60;67.00
13049;DHT22;6591;51.446;5.404;2023-03-16T17:07:54;19.40;68.10
13049;DHT22;6591;51.446;5.404;2023-03-16T17:10:25;19.20;68.30
13049;DHT22;6591;51.446;5.404;2023-03-16T17:12:54;19.00;67.80
13049;DHT22;6591;51.446;5.404;2023-03-16T17:15:28;18.80;67.90
13049;DHT22;6591;51.446;5.404;2023-03-16T17:18:03;18.50;67.70
13049;DHT22;6591;51.446;5.404;2023-03-16T17:20:36;18.30;67.70
13049;DHT22;6591;51.446;5.404;2023-03-16T17:25:51;17.70;67.70
13049;DHT22;6591;51.446;5.404;2023-03-16T17:28:23;17.50;68.60
13049;DHT22;6591;51.446;5.404;2023-03-16T17:30:54;18.70;69.70
13049;DHT22;6591;51.446;5.404;2023-03-16T17:33:24;17.60;69.30
13049;DHT22;6591;51.446;5.404;2023-03-16T17:35:53;17.70;69.70
13049;DHT22;6591;51.446;5.404;2023-03-16T17:38:23;17.70;70.00
13049;DHT22;6591;51.446;5.404;2023-03-16T17:40:51;16.30;69.80
13049;DHT22;6591;51.446;5.404;2023-03-16T17:43:22;16.10;70.00
13049;DHT22;6591;51.446;5.404;2023-03-16T17:45:50;16.00;70.60
13049;DHT22;6591;51.446;5.404;2023-03-16T17:48:20;15.60;70.60
13049;DHT22;6591;51.446;5.404;2023-03-16T17:50:49;15.40;71.00
13049;DHT22;6591;51.446;5.404;2023-03-16T17:53:18;15.30;71.30
13049;DHT22;6591;51.446;5.404;2023-03-16T17:55:47;15.10;71.80
13049;DHT22;6591;51.446;5.404;2023-03-16T17:58:25;14.90;72.10
13049;DHT22;6591;51.446;5.404;2023-03-16T18:00:56;14.70;72.60
13049;DHT22;6591;51.446;5.404;2023-03-16T18:03:24;14.50;72.90
13049;DHT22;6591;51.446;5.404;2023-03-16T18:05:56;15.50;74.10
13049;DHT22;6591;51.446;5.404;2023-03-16T18:08:28;15.50;74.20
13049;DHT22;6591;51.446;5.404;2023-03-16T18:11:06;13.80;73.70
13049;DHT22;6591;51.446;5.404;2023-03-16T18:13:39;13.90;74.20